createdAt,value
2018-06-24T00:03:26.596Z,74.3
2018-06-24T00:08:26.688Z,74.8
2018-06-24T00:13:26.546Z,74.2
2018-06-24T00:18:26.745Z,74.2
2018-06-24T00:23:26.784Z,74.2
2018-06-24T00:28:26.721Z,73.5
2018-06-24T00:33:27.114Z,71.8
2018-06-24T00:38:26.743Z,71.7
2018-06-24T00:43:38.924Z,70.8
2018-06-24T00:48:38.576Z,69.5
2018-06-24T00:53:38.711Z,69.1
2018-06-24T00:58:38.605Z,68.8
2018-06-24T01:03:38.890Z,68.4
2018-06-24T01:08:38.609Z,68.6
2018-06-24T01:13:38.799Z,68.9
2018-06-24T01:18:40.314Z,68.1
2018-06-24T01:23:40.149Z,68.7
2018-06-24T01:28:52.175Z,68.5
2018-06-24T01:33:52.038Z,69
2018-06-24T01:38:51.902Z,68.8
2018-06-24T01:43:52.019Z,68.7
2018-06-24T01:48:51.920Z,69.2
2018-06-24T01:53:51.902Z,69.1
2018-06-24T01:58:52.032Z,70.5
2018-06-24T02:03:52.427Z,73.2
2018-06-24T02:08:52.182Z,73.5
2018-06-24T02:14:04.606Z,74.7
2018-06-24T02:19:04.581Z,75.4
2018-06-24T02:24:04.455Z,76.1
2018-06-24T02:29:04.456Z,78
2018-06-24T02:34:04.582Z,79
2018-06-24T02:39:04.574Z,79.7
2018-06-24T02:44:04.347Z,78.7
2018-06-24T02:49:04.438Z,80.1
2018-06-24T02:54:04.449Z,79.6
2018-06-24T02:59:16.326Z,81.6
2018-06-24T03:04:16.159Z,82.8
2018-06-24T03:09:16.045Z,83
2018-06-24T03:14:16.059Z,83
2018-06-24T03:19:16.194Z,82.4
2018-06-24T03:24:16.297Z,82.3
2018-06-24T03:29:16.069Z,82.4
2018-06-24T03:34:16.067Z,82.7
2018-06-24T03:39:16.236Z,84.7
2018-06-24T03:44:28.216Z,84.8
2018-06-24T03:49:27.958Z,84.3
2018-06-24T03:54:28.068Z,84.9
2018-06-24T03:59:27.952Z,85.2
2018-06-24T04:04:27.954Z,85.7
2018-06-24T04:09:30.703Z,86.2
2018-06-24T04:14:27.976Z,86.3
2018-06-24T04:19:27.917Z,86.7
2018-06-24T04:24:27.970Z,87.5
2018-06-24T04:29:39.980Z,87.6
2018-06-24T04:34:39.709Z,87.3
2018-06-24T04:39:39.721Z,86.6
2018-06-24T04:44:39.727Z,86.4
2018-06-24T04:49:39.848Z,87.7
2018-06-24T04:54:39.898Z,87.7
2018-06-24T04:59:40.955Z,87.1
2018-06-24T05:04:41.627Z,87.2
2018-06-24T05:09:41.551Z,87.7
2018-06-24T05:14:52.150Z,87.5
2018-06-24T05:19:52.051Z,86.8
2018-06-24T05:24:52.079Z,86.4
2018-06-24T05:29:52.006Z,85.2
2018-06-24T05:34:51.874Z,85.3
2018-06-24T05:39:51.888Z,84.6
2018-06-24T05:44:52.009Z,84.5
2018-06-24T05:49:55.218Z,83.2
2018-06-24T05:54:55.040Z,84.7
2018-06-24T06:00:04.700Z,83.4
2018-06-24T06:05:04.633Z,83.3
2018-06-24T06:10:04.699Z,84
2018-06-24T06:15:04.419Z,83.7
2018-06-24T06:20:04.457Z,83.8
2018-06-24T06:25:04.452Z,83.3
2018-06-24T06:30:04.570Z,82.3
2018-06-24T06:35:05.685Z,82.2
2018-06-24T06:40:05.397Z,82.8
2018-06-24T06:45:18.739Z,82.9
2018-06-24T06:50:18.026Z,81.5
2018-06-24T06:55:18.091Z,83.8
2018-06-24T07:00:18.074Z,81.9
2018-06-24T07:05:18.115Z,78.8
2018-06-24T07:10:18.468Z,78.1
2018-06-24T07:15:18.093Z,78.4
2018-06-24T07:20:18.106Z,79.1
2018-06-24T07:25:18.120Z,76.8
2018-06-24T07:30:32.954Z,76.1
2018-06-24T07:35:32.911Z,75.4
2018-06-24T07:40:32.720Z,73
2018-06-24T07:45:32.745Z,72.1
2018-06-24T07:50:32.695Z,72.2
2018-06-24T07:55:32.703Z,70.8
2018-06-24T08:00:32.704Z,70.2
2018-06-24T08:05:32.660Z,69.9
2018-06-24T08:10:33.080Z,69
2018-06-24T08:15:45.801Z,67.4
2018-06-24T08:20:45.652Z,65.4
2018-06-24T08:25:45.577Z,65.7
2018-06-24T08:30:45.516Z,65.8
2018-06-24T08:35:45.650Z,64.1
2018-06-24T08:40:45.676Z,65.1
2018-06-24T08:45:45.533Z,64.7
2018-06-24T08:50:45.646Z,65
2018-06-24T08:55:45.552Z,64.6
2018-06-24T09:00:57.206Z,63.3
2018-06-24T09:05:56.992Z,62.2
2018-06-24T09:10:56.793Z,62.5
2018-06-24T09:15:57.148Z,61.8
2018-06-24T09:20:56.985Z,62.2
2018-06-24T09:25:56.803Z,58.1
2018-06-24T09:30:56.975Z,59.5
2018-06-24T09:35:56.825Z,59.9
2018-06-24T09:40:57.061Z,57.6
2018-06-24T09:45:57.516Z,58
2018-06-24T09:50:56.929Z,57
2018-06-24T09:55:56.826Z,58
2018-06-24T10:00:57.047Z,58.5
2018-06-24T10:05:57.082Z,57.5
2018-06-24T10:11:09.058Z,58.9
2018-06-24T10:16:08.575Z,55.1
2018-06-24T10:21:08.732Z,53.2
2018-06-24T10:26:08.824Z,55.7
2018-06-24T10:31:08.630Z,56.6
2018-06-24T10:36:08.621Z,58.5
2018-06-24T10:41:08.741Z,58.9
2018-06-24T10:46:08.638Z,59.4
2018-06-24T10:51:08.653Z,58.1
2018-06-24T10:56:20.904Z,57.1
2018-06-24T11:01:20.602Z,57.3
2018-06-24T11:06:20.706Z,55.8
2018-06-24T11:11:20.916Z,54.4
2018-06-24T11:16:20.627Z,54.3
2018-06-24T11:21:20.614Z,54.8
2018-06-24T11:26:20.578Z,55
2018-06-24T11:31:24.393Z,53
2018-06-24T11:36:24.146Z,52.3
2018-06-24T11:41:36.239Z,51.4
2018-06-24T11:46:36.025Z,50.3
2018-06-24T11:51:35.981Z,49.9
2018-06-24T11:56:36.013Z,48.7
2018-06-24T12:01:38.831Z,48.3
2018-06-24T12:06:36.768Z,49.2
2018-06-24T12:11:36.014Z,49.5
2018-06-24T12:16:39.293Z,46.8
2018-06-24T12:21:39.034Z,45.7
2018-06-24T12:26:51.091Z,43.4
2018-06-24T12:31:50.735Z,44.9
2018-06-24T12:36:50.794Z,45.2
2018-06-24T12:41:50.985Z,47.7
2018-06-24T12:46:50.798Z,46.6
2018-06-24T12:51:59.456Z,46.2
2018-06-24T12:56:59.154Z,45.6
2018-06-24T13:02:01.376Z,46.7
2018-06-24T13:07:01.113Z,44.5
2018-06-24T13:12:13.435Z,42.1
2018-06-24T13:17:13.166Z,41.8
2018-06-24T13:22:13.211Z,41.2
2018-06-24T13:27:13.181Z,43.5
2018-06-24T13:32:13.448Z,44.5
2018-06-24T13:37:13.162Z,44.4
2018-06-24T13:42:13.235Z,44.8
2018-06-24T13:47:14.279Z,45.9
2018-06-24T13:52:14.024Z,46.1
2018-06-24T13:57:26.847Z,46.1
2018-06-24T14:02:26.535Z,45.7
2018-06-24T14:07:26.720Z,45.4
2018-06-24T14:12:26.720Z,45.8
2018-06-24T14:17:26.738Z,45.7
2018-06-24T14:22:26.771Z,46
2018-06-24T14:27:26.799Z,44.5
2018-06-24T14:32:27.589Z,45.3
2018-06-24T14:37:27.558Z,44
2018-06-24T14:42:39.635Z,45.4
2018-06-24T14:47:39.383Z,43.3
2018-06-24T14:52:39.569Z,43.2
2018-06-24T14:57:39.472Z,44.9
2018-06-24T15:02:39.564Z,45.3
2018-06-24T15:07:39.375Z,44.6
2018-06-24T15:12:39.379Z,43
2018-06-24T15:17:40.830Z,42.8
2018-06-24T15:22:40.587Z,44.7
2018-06-24T15:27:53.243Z,44.2
2018-06-24T15:32:53.220Z,44.6
2018-06-24T15:37:53.157Z,43.8
2018-06-24T15:42:52.965Z,44.6
2018-06-24T15:47:53.219Z,43.1
2018-06-24T15:52:52.983Z,44.2
2018-06-24T15:57:52.986Z,42.8
2018-06-24T16:02:56.175Z,43.3
2018-06-24T16:07:55.950Z,44.4
2018-06-24T16:13:06.395Z,44.3
2018-06-24T16:18:06.155Z,44
2018-06-24T16:23:06.230Z,44.3
2018-06-24T16:28:06.243Z,45.1
2018-06-24T16:33:06.193Z,45.6
2018-06-24T16:38:07.382Z,45.2
2018-06-24T16:43:07.276Z,45.8
2018-06-24T16:48:07.288Z,45.1
2018-06-24T16:53:07.218Z,44.6
2018-06-24T16:58:07.146Z,46.1
2018-06-24T17:03:07.091Z,46.8
2018-06-24T17:08:07.094Z,46.9
2018-06-24T17:13:07.121Z,46.7
2018-06-24T17:18:07.170Z,47.7
2018-06-24T17:23:18.949Z,47.8
2018-06-24T17:28:18.719Z,49
2018-06-24T17:33:18.763Z,49.7
2018-06-24T17:38:18.573Z,48.8
2018-06-24T17:43:18.619Z,49.1
2018-06-24T17:48:18.751Z,49.1
2018-06-24T17:53:18.779Z,49.6
2018-06-24T17:58:22.933Z,49.9
2018-06-24T18:03:22.512Z,51
2018-06-24T18:08:34.904Z,50.7
2018-06-24T18:13:34.745Z,53.1
2018-06-24T18:18:34.786Z,52
2018-06-24T18:23:34.600Z,53.8
2018-06-24T18:28:34.646Z,55.8
2018-06-24T18:33:35.695Z,56.8
2018-06-24T18:38:34.753Z,55.8
2018-06-24T18:43:34.756Z,56
2018-06-24T18:48:34.836Z,56.6
2018-06-24T18:53:47.360Z,58
2018-06-24T18:58:47.038Z,58
2018-06-24T19:03:47.172Z,59.1
2018-06-24T19:08:47.089Z,58.8
2018-06-24T19:13:47.112Z,58
2018-06-24T19:18:47.444Z,58.4
2018-06-24T19:23:47.869Z,59
2018-06-24T19:28:49.538Z,63.3
2018-06-24T19:33:49.269Z,63.9
2018-06-24T19:39:02.745Z,64.1
2018-06-24T19:44:02.400Z,65.3
2018-06-24T19:49:02.425Z,66.2
2018-06-24T19:54:02.666Z,66.2
2018-06-24T19:59:02.709Z,66
2018-06-24T20:04:02.894Z,61
2018-06-24T20:09:02.624Z,63.6
2018-06-24T20:14:05.075Z,64
2018-06-24T20:19:04.992Z,65.8
2018-06-24T20:24:17.202Z,67.1
2018-06-24T20:29:17.094Z,68.1
2018-06-24T20:34:16.973Z,69.6
2018-06-24T20:39:16.925Z,71.5
2018-06-24T20:44:16.939Z,71.1
2018-06-24T20:49:17.128Z,71.2
2018-06-24T20:54:17.161Z,71.3
2018-06-24T20:59:17.426Z,73
2018-06-24T21:04:17.151Z,73.1
2018-06-24T21:09:29.248Z,76.4
2018-06-24T21:14:28.964Z,76.7
2018-06-24T21:19:28.988Z,80.8
2018-06-24T21:24:29.263Z,82.4
2018-06-24T21:29:29.163Z,82
2018-06-24T21:34:29.298Z,81.9
2018-06-24T21:39:29.148Z,83.5
2018-06-24T21:44:29.184Z,86
2018-06-24T21:49:29.422Z,84.3
2018-06-24T21:54:41.323Z,82.5
2018-06-24T21:59:41.073Z,83.9
2018-06-24T22:04:41.175Z,86
2018-06-24T22:09:41.089Z,86.8
2018-06-24T22:14:41.058Z,84.8
2018-06-24T22:19:41.287Z,85.7
2018-06-24T22:24:41.080Z,84.9
2018-06-24T22:29:41.198Z,85.7
2018-06-24T22:34:41.189Z,86.6
2018-06-24T22:39:53.041Z,87.3
2018-06-24T22:44:52.915Z,87.1
2018-06-24T22:49:52.768Z,88.1
2018-06-24T22:54:52.951Z,87.7
2018-06-24T22:59:53.942Z,87
2018-06-24T23:04:52.764Z,90.7
2018-06-24T23:09:52.796Z,90.3
2018-06-24T23:14:56.491Z,90.8
2018-06-24T23:19:56.294Z,89.2
2018-06-24T23:25:08.714Z,89.8
2018-06-24T23:30:08.435Z,89.4
2018-06-24T23:35:08.683Z,89.7
2018-06-24T23:40:08.668Z,89.8
2018-06-24T23:45:08.639Z,90.7
2018-06-24T23:50:08.436Z,89.9
2018-06-24T23:55:08.706Z,90.7
